sensor_id;sensor_type;location;lat;lon;timestamp;pressure;altitude;pressure_sealevel;temperature;humidity
7182;BME280;3632;42.724;23.298;2023-03-04T00:00:54;95418.19;;;7.49;100.00
7182;BME280;3632;42.724;23.298;2023-03-04T00:03:21;95428.13;;;7.52;100.00
7182;BME280;3632;42.724;23.298;2023-03-04T00:05:48;95422.34;;;7.50;100.00
7182;BME280;3632;42.724;23.298;2023-03-04T00:08:16;95418.25;;;7.48;100.00
7182;BME280;3632;42.724;23.298;2023-03-04T00:10:43;95422.50;;;7.47;100.00
7182;BME280;3632;42.724;23.298;2023-03-04T00:13:10;94960.38;;;4.36;100.00
7182;BME280;3632;42.724;23.298;2023-03-04T00:15:36;95423.25;;;7.49;100.00
7182;BME280;3632;42.724;23.298;2023-03-04T00:18:03;95419.81;;;7.50;100.00
7182;BME280;3632;42.724;23.298;2023-03-04T00:20:30;95285.56;;;6.70;100.00
7182;BME280;3632;42.724;23.298;2023-03-04T00:22:57;95409.06;;;7.47;100.00
7182;BME280;3632;42.724;23.298;2023-03-04T00:25:25;95028.28;;;4.10;100.00
7182;BME280;3632;42.724;23.298;2023-03-04T00:27:52;95051.53;;;5.15;100.00
7182;BME280;3632;42.724;23.298;2023-03-04T00:30:18;95409.84;;;7.47;100.00
7182;BME280;3632;42.724;23.298;2023-03-04T00:32:45;95408.63;;;7.40;100.00
7182;BME280;3632;42.724;23.298;2023-03-04T00:35:12;95303.34;;;5.86;100.00
7182;BME280;3632;42.724;23.298;2023-03-04T00:37:39;94805.88;;;3.63;100.00
7182;BME280;3632;42.724;23.298;2023-03-04T00:40:07;95397.09;;;7.22;100.00
7182;BME280;3632;42.724;23.298;2023-03-04T00:42:35;95370.56;;;7.01;100.00
7182;BME280;3632;42.724;23.298;2023-03-04T00:45:03;95400.47;;;7.35;100.00
7182;BME280;3632;42.724;23.298;2023-03-04T00:47:30;95396.84;;;7.39;100.00
7182;BME280;3632;42.724;23.298;2023-03-04T00:49:56;95404.28;;;7.42;100.00
7182;BME280;3632;42.724;23.298;2023-03-04T00:52:23;95402.06;;;7.50;100.00
7182;BME280;3632;42.724;23.298;2023-03-04T00:54:50;94958.69;;;4.36;100.00
7182;BME280;3632;42.724;23.298;2023-03-04T00:57:16;95398.72;;;7.50;100.00
7182;BME280;3632;42.724;23.298;2023-03-04T00:59:45;95281.50;;;6.67;100.00
7182;BME280;3632;42.724;23.298;2023-03-04T01:02:12;95293.25;;;6.68;100.00
7182;BME280;3632;42.724;23.298;2023-03-04T01:04:39;95400.34;;;7.51;100.00
7182;BME280;3632;42.724;23.298;2023-03-04T01:07:06;95393.03;;;7.59;100.00
7182;BME280;3632;42.724;23.298;2023-03-04T01:09:33;95386.75;;;7.64;99.94
7182;BME280;3632;42.724;23.298;2023-03-04T01:11:59;95399.72;;;7.60;99.29
7182;BME280;3632;42.724;23.298;2023-03-04T01:14:26;95403.38;;;7.56;98.89
7182;BME280;3632;42.724;23.298;2023-03-04T01:16:54;95347.91;;;7.12;98.88
7182;BME280;3632;42.724;23.298;2023-03-04T01:19:21;95392.03;;;7.61;98.72
7182;BME280;3632;42.724;23.298;2023-03-04T01:21:48;95396.41;;;7.59;98.58
7182;BME280;3632;42.724;23.298;2023-03-04T01:24:15;95409.38;;;7.55;98.81
7182;BME280;3632;42.724;23.298;2023-03-04T01:26:41;95331.31;;;7.20;99.43
7182;BME280;3632;42.724;23.298;2023-03-04T01:29:08;95387.16;;;7.58;99.14
7182;BME280;3632;42.724;23.298;2023-03-04T01:31:35;95375.91;;;7.62;99.38
7182;BME280;3632;42.724;23.298;2023-03-04T01:34:03;95375.59;;;7.67;99.20
7182;BME280;3632;42.724;23.298;2023-03-04T01:36:30;95387.25;;;7.69;98.93
7182;BME280;3632;42.724;23.298;2023-03-04T01:38:57;95493.91;;;7.68;99.13
7182;BME280;3632;42.724;23.298;2023-03-04T01:41:25;95376.31;;;7.69;98.12
7182;BME280;3632;42.724;23.298;2023-03-04T01:43:57;95103.63;;;5.85;97.73
7182;BME280;3632;42.724;23.298;2023-03-04T01:46:26;95293.28;;;7.20;97.67
7182;BME280;3632;42.724;23.298;2023-03-04T01:48:53;95363.00;;;7.65;98.04
7182;BME280;3632;42.724;23.298;2023-03-04T01:51:22;95354.59;;;7.65;97.92
7182;BME280;3632;42.724;23.298;2023-03-04T01:53:50;94731.16;;;3.76;97.08
7182;BME280;3632;42.724;23.298;2023-03-04T01:56:23;95056.66;;;5.27;97.42
7182;BME280;3632;42.724;23.298;2023-03-04T01:59:10;95360.06;;;7.59;98.22
7182;BME280;3632;42.724;23.298;2023-03-04T02:01:39;95354.28;;;7.57;96.84
7182;BME280;3632;42.724;23.298;2023-03-04T02:04:08;95346.78;;;7.55;97.85
7182;BME280;3632;42.724;23.298;2023-03-04T02:06:38;95351.03;;;7.55;97.96
7182;BME280;3632;42.724;23.298;2023-03-04T02:09:06;95348.06;;;7.48;97.56
7182;BME280;3632;42.724;23.298;2023-03-04T02:11:33;95341.28;;;7.49;97.96
7182;BME280;3632;42.724;23.298;2023-03-04T02:14:00;95289.47;;;6.34;97.73
7182;BME280;3632;42.724;23.298;2023-03-04T02:16:27;95271.75;;;7.01;97.49
7182;BME280;3632;42.724;23.298;2023-03-04T02:18:54;95303.31;;;7.22;97.42
7182;BME280;3632;42.724;23.298;2023-03-04T02:21:23;95285.84;;;7.05;97.45
7182;BME280;3632;42.724;23.298;2023-03-04T02:23:58;95350.59;;;7.48;98.29
7182;BME280;3632;42.724;23.298;2023-03-04T02:26:30;95238.19;;;6.18;97.88
7182;BME280;3632;42.724;23.298;2023-03-04T02:28:59;95314.09;;;7.25;97.87
7182;BME280;3632;42.724;23.298;2023-03-04T02:31:30;95350.09;;;7.43;98.82
7182;BME280;3632;42.724;23.298;2023-03-04T02:34:00;95354.84;;;7.35;98.25
7182;BME280;3632;42.724;23.298;2023-03-04T02:36:27;95352.31;;;7.35;97.99
7182;BME280;3632;42.724;23.298;2023-03-04T02:38:58;94960.34;;;4.64;98.28
7182;BME280;3632;42.724;23.298;2023-03-04T02:41:29;95272.81;;;6.84;98.31
7182;BME280;3632;42.724;23.298;2023-03-04T02:43:56;95325.06;;;6.99;98.38
7182;BME280;3632;42.724;23.298;2023-03-04T02:46:23;95340.84;;;7.29;98.92
7182;BME280;3632;42.724;23.298;2023-03-04T02:48:51;95333.94;;;7.31;98.15
7182;BME280;3632;42.724;23.298;2023-03-04T02:51:18;95329.63;;;7.33;98.61
7182;BME280;3632;42.724;23.298;2023-03-04T02:53:44;95329.63;;;7.33;97.96
7182;BME280;3632;42.724;23.298;2023-03-04T02:56:11;95092.72;;;5.43;98.70
7182;BME280;3632;42.724;23.298;2023-03-04T02:58:39;95339.22;;;7.28;98.29
7182;BME280;3632;42.724;23.298;2023-03-04T03:01:06;95395.56;;;6.93;98.52
7182;BME280;3632;42.724;23.298;2023-03-04T03:03:33;95307.03;;;7.04;98.82
7182;BME280;3632;42.724;23.298;2023-03-04T03:06:00;95074.69;;;5.35;99.53
7182;BME280;3632;42.724;23.298;2023-03-04T03:08:27;95338.84;;;6.95;100.00
7182;BME280;3632;42.724;23.298;2023-03-04T03:10:53;95344.97;;;6.78;100.00
7182;BME280;3632;42.724;23.298;2023-03-04T03:13:20;95344.84;;;6.80;100.00
7182;BME280;3632;42.724;23.298;2023-03-04T03:15:48;95401.19;;;6.28;100.00
7182;BME280;3632;42.724;23.298;2023-03-04T03:18:15;95309.50;;;6.78;100.00
7182;BME280;3632;42.724;23.298;2023-03-04T03:20:42;95337.91;;;6.96;100.00
7182;BME280;3632;42.724;23.298;2023-03-04T03:23:09;95343.34;;;6.77;100.00
7182;BME280;3632;42.724;23.298;2023-03-04T03:25:36;95340.34;;;6.71;100.00
7182;BME280;3632;42.724;23.298;2023-03-04T03:28:03;95332.63;;;6.60;100.00
7182;BME280;3632;42.724;23.298;2023-03-04T03:30:30;95334.81;;;6.52;100.00
7182;BME280;3632;42.724;23.298;2023-03-04T03:32:58;95251.47;;;6.08;100.00
7182;BME280;3632;42.724;23.298;2023-03-04T03:35:25;95336.88;;;6.45;100.00
7182;BME280;3632;42.724;23.298;2023-03-04T03:37:52;95390.59;;;6.50;100.00
7182;BME280;3632;42.724;23.298;2023-03-04T03:40:19;94889.81;;;3.63;100.00
7182;BME280;3632;42.724;23.298;2023-03-04T03:42:46;95338.44;;;6.48;100.00
7182;BME280;3632;42.724;23.298;2023-03-04T03:45:13;95267.19;;;6.13;100.00
7182;BME280;3632;42.724;23.298;2023-03-04T03:47:40;94907.00;;;3.27;100.00
7182;BME280;3632;42.724;23.298;2023-03-04T03:50:09;95335.31;;;6.16;100.00
7182;BME280;3632;42.724;23.298;2023-03-04T03:52:36;95088.44;;;4.60;100.00
7182;BME280;3632;42.724;23.298;2023-03-04T03:55:03;95336.88;;;6.04;100.00
7182;BME280;3632;42.724;23.298;2023-03-04T03:57:30;95356.00;;;6.08;100.00
7182;BME280;3632;42.724;23.298;2023-03-04T03:59:57;95327.38;;;6.08;100.00
7182;BME280;3632;42.724;23.298;2023-03-04T04:02:24;95334.88;;;5.95;100.00
7182;BME280;3632;42.724;23.298;2023-03-04T04:04:50;95084.31;;;4.16;100.00
7182;BME280;3632;42.724;23.298;2023-03-04T04:07:18;95313.81;;;6.23;100.00
7182;BME280;3632;42.724;23.298;2023-03-04T04:09:45;95310.47;;;6.22;100.00
7182;BME280;3632;42.724;23.298;2023-03-04T04:12:13;95312.44;;;6.17;100.00
7182;BME280;3632;42.724;23.298;2023-03-04T04:14:41;95359.00;;;5.57;100.00
7182;BME280;3632;42.724;23.298;2023-03-04T04:17:08;95313.81;;;6.09;100.00
7182;BME280;3632;42.724;23.298;2023-03-04T04:19:35;95323.75;;;6.12;100.00
7182;BME280;3632;42.724;23.298;2023-03-04T04:22:02;95136.06;;;4.81;100.00
7182;BME280;3632;42.724;23.298;2023-03-04T04:24:31;95319.00;;;5.93;100.00
7182;BME280;3632;42.724;23.298;2023-03-04T04:26:58;95269.03;;;5.68;100.00
7182;BME280;3632;42.724;23.298;2023-03-04T04:29:25;95096.34;;;4.54;100.00
7182;BME280;3632;42.724;23.298;2023-03-04T04:31:52;95247.75;;;5.14;100.00
7182;BME280;3632;42.724;23.298;2023-03-04T04:34:19;95441.09;;;5.35;100.00
7182;BME280;3632;42.724;23.298;2023-03-04T04:36:46;95351.25;;;5.16;100.00
7182;BME280;3632;42.724;23.298;2023-03-04T04:39:13;95313.78;;;5.52;100.00
7182;BME280;3632;42.724;23.298;2023-03-04T04:41:42;94701.63;;;1.58;100.00
7182;BME280;3632;42.724;23.298;2023-03-04T04:44:10;95316.19;;;5.39;100.00
7182;BME280;3632;42.724;23.298;2023-03-04T04:46:37;95232.47;;;3.81;100.00
7182;BME280;3632;42.724;23.298;2023-03-04T04:49:04;95337.00;;;5.15;100.00
7182;BME280;3632;42.724;23.298;2023-03-04T04:51:32;95318.56;;;5.42;100.00
7182;BME280;3632;42.724;23.298;2023-03-04T04:54:00;95180.72;;;4.50;100.00
7182;BME280;3632;42.724;23.298;2023-03-04T04:56:27;95326.75;;;5.32;100.00
7182;BME280;3632;42.724;23.298;2023-03-04T04:58:58;94941.59;;;2.78;100.00
7182;BME280;3632;42.724;23.298;2023-03-04T05:01:26;95043.16;;;3.40;100.00
7182;BME280;3632;42.724;23.298;2023-03-04T05:03:53;95299.47;;;4.93;100.00
7182;BME280;3632;42.724;23.298;2023-03-04T05:06:21;95256.34;;;4.82;100.00
7182;BME280;3632;42.724;23.298;2023-03-04T05:08:48;95336.34;;;5.41;100.00
7182;BME280;3632;42.724;23.298;2023-03-04T05:11:16;95298.38;;;5.13;100.00
7182;BME280;3632;42.724;23.298;2023-03-04T05:13:43;95461.84;;;5.56;100.00
7182;BME280;3632;42.724;23.298;2023-03-04T05:16:12;95484.28;;;5.62;100.00
7182;BME280;3632;42.724;23.298;2023-03-04T05:18:38;95350.81;;;5.53;100.00
7182;BME280;3632;42.724;23.298;2023-03-04T05:21:06;95348.53;;;5.34;100.00
7182;BME280;3632;42.724;23.298;2023-03-04T05:23:33;95077.22;;;2.67;100.00
7182;BME280;3632;42.724;23.298;2023-03-04T05:26:01;95346.25;;;5.44;100.00
7182;BME280;3632;42.724;23.298;2023-03-04T05:28:28;95152.91;;;3.44;100.00
7182;BME280;3632;42.724;23.298;2023-03-04T05:30:55;95255.06;;;5.19;100.00
7182;BME280;3632;42.724;23.298;2023-03-04T05:33:23;95348.72;;;5.89;100.00
7182;BME280;3632;42.724;23.298;2023-03-04T05:35:50;95496.78;;;5.79;100.00
7182;BME280;3632;42.724;23.298;2023-03-04T05:38:18;95398.78;;;5.83;100.00
7182;BME280;3632;42.724;23.298;2023-03-04T05:40:46;95342.53;;;6.08;100.00
7182;BME280;3632;42.724;23.298;2023-03-04T05:43:13;95348.50;;;6.21;100.00
7182;BME280;3632;42.724;23.298;2023-03-04T05:45:41;95327.91;;;6.13;100.00
7182;BME280;3632;42.724;23.298;2023-03-04T05:48:08;94979.53;;;3.36;100.00
7182;BME280;3632;42.724;23.298;2023-03-04T05:50:37;95357.34;;;6.42;100.00
7182;BME280;3632;42.724;23.298;2023-03-04T05:53:03;94957.31;;;4.02;100.00
7182;BME280;3632;42.724;23.298;2023-03-04T05:55:30;95017.84;;;4.59;100.00
7182;BME280;3632;42.724;23.298;2023-03-04T05:57:57;95400.31;;;6.84;99.68
7182;BME280;3632;42.724;23.298;2023-03-04T06:00:24;95296.84;;;5.68;98.91
7182;BME280;3632;42.724;23.298;2023-03-04T06:02:51;95296.25;;;6.61;98.64
7182;BME280;3632;42.724;23.298;2023-03-04T06:05:19;95374.69;;;7.16;98.59
7182;BME280;3632;42.724;23.298;2023-03-04T06:07:47;95374.81;;;7.27;98.85
7182;BME280;3632;42.724;23.298;2023-03-04T06:10:16;95378.38;;;7.37;98.64
7182;BME280;3632;42.724;23.298;2023-03-04T06:12:43;95043.06;;;5.16;98.93
7182;BME280;3632;42.724;23.298;2023-03-04T06:15:10;94820.19;;;3.77;98.32
7182;BME280;3632;42.724;23.298;2023-03-04T06:17:38;95381.16;;;7.47;98.47
7182;BME280;3632;42.724;23.298;2023-03-04T06:20:06;95382.09;;;7.58;98.17
7182;BME280;3632;42.724;23.298;2023-03-04T06:22:33;95094.75;;;5.10;97.72
7182;BME280;3632;42.724;23.298;2023-03-04T06:25:02;95376.81;;;7.74;97.72
7182;BME280;3632;42.724;23.298;2023-03-04T06:27:29;95379.03;;;7.66;98.28
7182;BME280;3632;42.724;23.298;2023-03-04T06:29:56;95233.63;;;6.89;97.68
7182;BME280;3632;42.724;23.298;2023-03-04T06:32:22;95388.69;;;7.99;95.70
7182;BME280;3632;42.724;23.298;2023-03-04T06:34:49;95294.63;;;7.51;94.60
7182;BME280;3632;42.724;23.298;2023-03-04T06:37:16;95501.94;;;8.14;93.54
7182;BME280;3632;42.724;23.298;2023-03-04T06:39:43;95291.97;;;7.40;93.09
7182;BME280;3632;42.724;23.298;2023-03-04T06:42:11;95308.41;;;7.72;92.90
7182;BME280;3632;42.724;23.298;2023-03-04T06:44:38;95384.31;;;8.26;92.28
7182;BME280;3632;42.724;23.298;2023-03-04T06:47:05;95314.09;;;7.89;92.30
7182;BME280;3632;42.724;23.298;2023-03-04T06:49:32;94883.78;;;5.04;92.35
7182;BME280;3632;42.724;23.298;2023-03-04T06:51:59;95390.34;;;8.38;91.10
7182;BME280;3632;42.724;23.298;2023-03-04T06:54:25;95370.91;;;8.24;89.97
7182;BME280;3632;42.724;23.298;2023-03-04T06:56:52;95405.19;;;8.31;90.77
7182;BME280;3632;42.724;23.298;2023-03-04T06:59:21;95395.00;;;8.18;92.42
7182;BME280;3632;42.724;23.298;2023-03-04T07:01:48;95156.72;;;6.78;91.73
7182;BME280;3632;42.724;23.298;2023-03-04T07:04:14;95323.75;;;7.84;90.80
7182;BME280;3632;42.724;23.298;2023-03-04T07:06:41;95104.72;;;6.08;91.68
7182;BME280;3632;42.724;23.298;2023-03-04T07:09:08;95226.34;;;6.98;90.98
7182;BME280;3632;42.724;23.298;2023-03-04T07:11:34;95399.16;;;8.07;90.66
7182;BME280;3632;42.724;23.298;2023-03-04T07:14:01;95308.00;;;7.28;91.14
7182;BME280;3632;42.724;23.298;2023-03-04T07:16:29;95413.47;;;7.43;91.16
7182;BME280;3632;42.724;23.298;2023-03-04T07:18:57;95254.97;;;7.25;89.31
7182;BME280;3632;42.724;23.298;2023-03-04T07:21:24;95402.41;;;8.21;87.69
7182;BME280;3632;42.724;23.298;2023-03-04T07:23:50;95272.81;;;7.49;87.67
7182;BME280;3632;42.724;23.298;2023-03-04T07:26:17;95412.59;;;8.34;87.16
7182;BME280;3632;42.724;23.298;2023-03-04T07:28:44;95405.28;;;8.30;86.42
7182;BME280;3632;42.724;23.298;2023-03-04T07:31:20;95301.53;;;7.49;87.21
7182;BME280;3632;42.724;23.298;2023-03-04T07:33:49;95082.91;;;6.07;87.51
7182;BME280;3632;42.724;23.298;2023-03-04T07:36:16;95402.75;;;8.30;87.18
7182;BME280;3632;42.724;23.298;2023-03-04T07:38:44;95280.22;;;7.64;86.85
7182;BME280;3632;42.724;23.298;2023-03-04T07:41:12;95310.84;;;7.99;85.53
7182;BME280;3632;42.724;23.298;2023-03-04T07:43:39;95419.44;;;8.70;85.46
7182;BME280;3632;42.724;23.298;2023-03-04T07:46:05;95415.25;;;8.82;85.62
7182;BME280;3632;42.724;23.298;2023-03-04T07:48:32;95374.66;;;8.56;85.11
7182;BME280;3632;42.724;23.298;2023-03-04T07:51:06;95132.69;;;6.96;84.65
7182;BME280;3632;42.724;23.298;2023-03-04T07:53:34;95393.63;;;9.00;83.49
7182;BME280;3632;42.724;23.298;2023-03-04T07:56:01;95068.13;;;7.02;83.52
7182;BME280;3632;42.724;23.298;2023-03-04T07:58:29;95469.25;;;9.09;85.06
7182;BME280;3632;42.724;23.298;2023-03-04T08:00:55;95258.81;;;8.17;82.88
7182;BME280;3632;42.724;23.298;2023-03-04T08:03:22;95326.50;;;8.79;82.96
7182;BME280;3632;42.724;23.298;2023-03-04T08:05:49;94815.75;;;5.41;82.56
7182;BME280;3632;42.724;23.298;2023-03-04T08:08:17;95394.53;;;9.46;82.56
7182;BME280;3632;42.724;23.298;2023-03-04T08:10:44;95384.16;;;9.49;80.59
7182;BME280;3632;42.724;23.298;2023-03-04T08:13:11;95388.09;;;9.30;80.42
7182;BME280;3632;42.724;23.298;2023-03-04T08:15:41;95389.38;;;9.24;79.77
7182;BME280;3632;42.724;23.298;2023-03-04T08:18:08;95359.47;;;8.67;78.51
7182;BME280;3632;42.724;23.298;2023-03-04T08:20:34;95243.25;;;7.86;78.91
7182;BME280;3632;42.724;23.298;2023-03-04T08:23:01;95387.78;;;9.10;78.42
7182;BME280;3632;42.724;23.298;2023-03-04T08:25:30;95344.47;;;8.64;80.54
7182;BME280;3632;42.724;23.298;2023-03-04T08:27:57;95389.03;;;9.05;80.87
7182;BME280;3632;42.724;23.298;2023-03-04T08:30:24;95390.44;;;9.09;81.10
7182;BME280;3632;42.724;23.298;2023-03-04T08:32:51;95395.78;;;8.93;81.75
7182;BME280;3632;42.724;23.298;2023-03-04T08:35:18;95383.75;;;9.08;81.05
7182;BME280;3632;42.724;23.298;2023-03-04T08:37:45;95382.25;;;9.16;80.00
7182;BME280;3632;42.724;23.298;2023-03-04T08:40:12;95166.72;;;7.55;78.66
7182;BME280;3632;42.724;23.298;2023-03-04T08:42:41;95406.59;;;8.84;79.54
7182;BME280;3632;42.724;23.298;2023-03-04T08:45:09;95354.09;;;8.96;79.09
7182;BME280;3632;42.724;23.298;2023-03-04T08:47:36;95380.13;;;9.58;79.08
7182;BME280;3632;42.724;23.298;2023-03-04T08:50:05;95387.94;;;9.44;78.90
7182;BME280;3632;42.724;23.298;2023-03-04T08:52:32;95379.25;;;9.46;79.22
7182;BME280;3632;42.724;23.298;2023-03-04T08:55:00;95064.38;;;7.44;78.05
7182;BME280;3632;42.724;23.298;2023-03-04T08:57:26;95213.91;;;8.54;77.15
7182;BME280;3632;42.724;23.298;2023-03-04T08:59:54;95177.81;;;8.14;78.51
7182;BME280;3632;42.724;23.298;2023-03-04T09:02:22;95374.16;;;9.46;78.34
7182;BME280;3632;42.724;23.298;2023-03-04T09:04:49;95321.84;;;9.20;77.19
7182;BME280;3632;42.724;23.298;2023-03-04T09:07:15;95338.28;;;8.56;76.75
7182;BME280;3632;42.724;23.298;2023-03-04T09:09:42;95432.03;;;9.55;77.60
7182;BME280;3632;42.724;23.298;2023-03-04T09:12:09;95298.91;;;9.09;78.77
7182;BME280;3632;42.724;23.298;2023-03-04T09:14:36;95372.03;;;9.64;78.13
7182;BME280;3632;42.724;23.298;2023-03-04T09:17:04;95368.34;;;9.68;77.92
7182;BME280;3632;42.724;23.298;2023-03-04T09:19:31;95158.91;;;8.42;77.04
7182;BME280;3632;42.724;23.298;2023-03-04T09:21:58;95015.16;;;6.99;75.96
7182;BME280;3632;42.724;23.298;2023-03-04T09:24:25;95355.78;;;10.11;74.54
7182;BME280;3632;42.724;23.298;2023-03-04T09:26:53;95362.88;;;10.19;74.00
7182;BME280;3632;42.724;23.298;2023-03-04T09:29:20;95366.72;;;10.24;73.71
7182;BME280;3632;42.724;23.298;2023-03-04T09:31:47;95016.75;;;7.84;73.92
7182;BME280;3632;42.724;23.298;2023-03-04T09:34:15;95386.31;;;9.89;74.67
7182;BME280;3632;42.724;23.298;2023-03-04T09:36:42;95353.69;;;9.94;76.01
7182;BME280;3632;42.724;23.298;2023-03-04T09:39:09;95354.44;;;10.29;74.74
7182;BME280;3632;42.724;23.298;2023-03-04T09:41:38;95354.31;;;10.42;73.09
7182;BME280;3632;42.724;23.298;2023-03-04T09:44:13;95243.75;;;9.78;73.17
7182;BME280;3632;42.724;23.298;2023-03-04T09:46:42;95348.28;;;10.54;73.10
7182;BME280;3632;42.724;23.298;2023-03-04T09:49:11;95346.97;;;10.71;72.83
7182;BME280;3632;42.724;23.298;2023-03-04T09:51:54;95352.09;;;10.60;72.84
7182;BME280;3632;42.724;23.298;2023-03-04T09:54:45;95377.16;;;10.43;74.61
7182;BME280;3632;42.724;23.298;2023-03-04T09:57:22;95345.84;;;10.64;73.91
7182;BME280;3632;42.724;23.298;2023-03-04T10:00:00;94996.72;;;8.38;73.52
7182;BME280;3632;42.724;23.298;2023-03-04T10:02:37;95050.81;;;8.84;73.87
7182;BME280;3632;42.724;23.298;2023-03-04T10:05:12;95319.09;;;10.47;72.65
7182;BME280;3632;42.724;23.298;2023-03-04T10:07:45;95045.59;;;8.75;71.54
7182;BME280;3632;42.724;23.298;2023-03-04T10:10:16;95335.88;;;10.61;73.01
7182;BME280;3632;42.724;23.298;2023-03-04T10:12:45;95328.31;;;10.70;70.73
7182;BME280;3632;42.724;23.298;2023-03-04T10:15:31;95348.84;;;10.58;72.77
7182;BME280;3632;42.724;23.298;2023-03-04T10:18:03;95321.47;;;10.82;71.21
7182;BME280;3632;42.724;23.298;2023-03-04T10:20:45;94847.63;;;7.38;72.63
7182;BME280;3632;42.724;23.298;2023-03-04T10:23:18;95315.03;;;10.56;74.38
7182;BME280;3632;42.724;23.298;2023-03-04T10:25:45;95203.94;;;9.99;74.46
7182;BME280;3632;42.724;23.298;2023-03-04T10:28:19;95315.72;;;11.00;71.76
7182;BME280;3632;42.724;23.298;2023-03-04T10:30:52;95306.97;;;11.14;70.09
7182;BME280;3632;42.724;23.298;2023-03-04T10:33:24;95304.69;;;11.32;70.18
7182;BME280;3632;42.724;23.298;2023-03-04T10:35:57;95296.97;;;11.22;69.72
7182;BME280;3632;42.724;23.298;2023-03-04T10:38:28;95292.22;;;11.18;70.86
7182;BME280;3632;42.724;23.298;2023-03-04T10:40:57;94955.53;;;8.90;72.31
7182;BME280;3632;42.724;23.298;2023-03-04T10:43:24;95285.94;;;11.22;71.78
7182;BME280;3632;42.724;23.298;2023-03-04T10:45:54;95284.84;;;11.35;70.69
7182;BME280;3632;42.724;23.298;2023-03-04T10:48:24;95226.91;;;11.06;69.75
7182;BME280;3632;42.724;23.298;2023-03-04T10:50:51;95279.09;;;11.22;70.97
7182;BME280;3632;42.724;23.298;2023-03-04T10:53:26;95264.63;;;11.23;70.88
7182;BME280;3632;42.724;23.298;2023-03-04T10:55:55;95261.56;;;11.50;69.87
7182;BME280;3632;42.724;23.298;2023-03-04T10:58:22;95130.81;;;10.65;70.66
7182;BME280;3632;42.724;23.298;2023-03-04T11:00:59;95255.16;;;11.34;68.12
7182;BME280;3632;42.724;23.298;2023-03-04T11:03:30;95263.72;;;11.33;68.11
7182;BME280;3632;42.724;23.298;2023-03-04T11:06:10;95254.59;;;11.10;69.81
7182;BME280;3632;42.724;23.298;2023-03-04T11:08:40;95248.00;;;11.28;69.13
7182;BME280;3632;42.724;23.298;2023-03-04T11:11:23;95231.78;;;11.60;67.86
7182;BME280;3632;42.724;23.298;2023-03-04T11:13:54;95263.44;;;11.48;68.15
7182;BME280;3632;42.724;23.298;2023-03-04T11:16:24;95139.59;;;10.72;67.36
7182;BME280;3632;42.724;23.298;2023-03-04T11:18:53;95222.63;;;12.27;67.59
7182;BME280;3632;42.724;23.298;2023-03-04T11:21:25;95211.91;;;12.53;65.60
7182;BME280;3632;42.724;23.298;2023-03-04T11:23:56;95222.69;;;12.56;65.23
7182;BME280;3632;42.724;23.298;2023-03-04T11:26:29;95218.47;;;12.26;66.85
7182;BME280;3632;42.724;23.298;2023-03-04T11:29:00;95207.84;;;12.21;65.94
7182;BME280;3632;42.724;23.298;2023-03-04T11:31:32;95204.91;;;12.26;65.03
7182;BME280;3632;42.724;23.298;2023-03-04T11:34:02;95204.34;;;12.13;65.83
7182;BME280;3632;42.724;23.298;2023-03-04T11:36:34;95196.47;;;11.95;67.02
7182;BME280;3632;42.724;23.298;2023-03-04T11:39:16;94766.97;;;9.16;66.85
7182;BME280;3632;42.724;23.298;2023-03-04T11:41:52;94936.69;;;10.29;66.27
7182;BME280;3632;42.724;23.298;2023-03-04T11:44:21;95183.84;;;11.94;65.91
7182;BME280;3632;42.724;23.298;2023-03-04T11:46:55;94653.72;;;8.61;66.51
7182;BME280;3632;42.724;23.298;2023-03-04T11:52:32;95090.25;;;11.03;67.00
7182;BME280;3632;42.724;23.298;2023-03-04T11:55:22;94948.19;;;10.24;67.81
7182;BME280;3632;42.724;23.298;2023-03-04T11:58:03;94894.19;;;9.79;66.72
7182;BME280;3632;42.724;23.298;2023-03-04T12:00:38;95155.59;;;11.85;66.50
7182;BME280;3632;42.724;23.298;2023-03-04T12:03:21;94673.44;;;9.10;64.85
7182;BME280;3632;42.724;23.298;2023-03-04T12:05:55;95132.81;;;12.13;64.66
7182;BME280;3632;42.724;23.298;2023-03-04T12:08:35;95226.00;;;12.28;65.05
7182;BME280;3632;42.724;23.298;2023-03-04T12:11:11;94616.91;;;9.28;64.49
7182;BME280;3632;42.724;23.298;2023-03-04T12:14:03;95160.75;;;12.91;63.13
7182;BME280;3632;42.724;23.298;2023-03-04T12:16:59;95120.25;;;12.87;62.64
7182;BME280;3632;42.724;23.298;2023-03-04T12:19:38;94751.22;;;10.53;62.32
7182;BME280;3632;42.724;23.298;2023-03-04T12:22:25;95159.97;;;13.19;62.29
7182;BME280;3632;42.724;23.298;2023-03-04T12:25:15;95129.53;;;12.97;62.18
7182;BME280;3632;42.724;23.298;2023-03-04T12:27:48;94817.34;;;10.65;62.45
7182;BME280;3632;42.724;23.298;2023-03-04T12:30:36;95022.47;;;11.60;63.48
7182;BME280;3632;42.724;23.298;2023-03-04T12:33:14;95139.78;;;12.20;63.81
7182;BME280;3632;42.724;23.298;2023-03-04T12:35:49;95136.47;;;11.80;65.16
7182;BME280;3632;42.724;23.298;2023-03-04T12:38:30;95140.81;;;11.59;66.67
7182;BME280;3632;42.724;23.298;2023-03-04T12:41:05;95031.94;;;10.59;67.30
7182;BME280;3632;42.724;23.298;2023-03-04T12:43:52;95129.06;;;11.37;67.54
7182;BME280;3632;42.724;23.298;2023-03-04T12:46:31;95131.97;;;11.23;67.47
7182;BME280;3632;42.724;23.298;2023-03-04T12:49:25;95122.63;;;11.33;68.71
7182;BME280;3632;42.724;23.298;2023-03-04T12:52:02;94988.47;;;10.30;67.60
7182;BME280;3632;42.724;23.298;2023-03-04T12:54:38;95129.09;;;11.16;68.57
7182;BME280;3632;42.724;23.298;2023-03-04T12:57:09;95049.09;;;10.87;68.64
7182;BME280;3632;42.724;23.298;2023-03-04T12:59:42;95117.47;;;11.23;68.94
7182;BME280;3632;42.724;23.298;2023-03-04T13:02:39;94928.31;;;9.97;68.43
7182;BME280;3632;42.724;23.298;2023-03-04T13:05:27;95106.13;;;11.16;68.90
7182;BME280;3632;42.724;23.298;2023-03-04T13:08:02;94903.66;;;9.77;68.99
7182;BME280;3632;42.724;23.298;2023-03-04T13:10:34;95126.34;;;10.98;70.18
7182;BME280;3632;42.724;23.298;2023-03-04T13:13:01;95180.63;;;10.89;69.81
7182;BME280;3632;42.724;23.298;2023-03-04T13:15:32;95093.03;;;10.90;71.11
7182;BME280;3632;42.724;23.298;2023-03-04T13:18:03;95092.22;;;10.90;70.03
7182;BME280;3632;42.724;23.298;2023-03-04T13:21:05;95082.00;;;10.90;71.03
7182;BME280;3632;42.724;23.298;2023-03-04T13:23:32;95081.66;;;11.04;70.92
7182;BME280;3632;42.724;23.298;2023-03-04T13:26:16;95080.59;;;11.07;73.28
7182;BME280;3632;42.724;23.298;2023-03-04T13:28:46;94991.41;;;10.56;72.72
7182;BME280;3632;42.724;23.298;2023-03-04T13:31:20;94734.44;;;8.90;73.34